sensor_id;sensor_type;location;lat;lon;timestamp;P1;durP1;ratioP1;P2;durP2;ratioP2
62696;SDS011;48761;42.680;23.312;2023-03-13T00:04:54;7.35;;;5.70;;
62696;SDS011;48761;42.680;23.312;2023-03-13T00:07:23;8.35;;;5.70;;
62696;SDS011;48761;42.680;23.312;2023-03-13T00:10:01;7.05;;;5.00;;
62696;SDS011;48761;42.680;23.312;2023-03-13T00:12:27;9.18;;;5.57;;
62696;SDS011;48761;42.680;23.312;2023-03-13T00:14:53;8.77;;;5.63;;
62696;SDS011;48761;42.680;23.312;2023-03-13T00:17:25;9.13;;;5.68;;
62696;SDS011;48761;42.680;23.312;2023-03-13T00:26:51;8.38;;;5.47;;
62696;SDS011;48761;42.680;23.312;2023-03-13T00:36:54;7.45;;;5.20;;
62696;SDS011;48761;42.680;23.312;2023-03-13T00:43:27;8.75;;;5.30;;
62696;SDS011;48761;42.680;23.312;2023-03-13T00:46:08;6.78;;;4.80;;
62696;SDS011;48761;42.680;23.312;2023-03-13T00:49:00;8.80;;;5.30;;
62696;SDS011;48761;42.680;23.312;2023-03-13T00:51:29;6.50;;;5.00;;
62696;SDS011;48761;42.680;23.312;2023-03-13T00:53:56;9.57;;;5.38;;
62696;SDS011;48761;42.680;23.312;2023-03-13T00:56:23;10.13;;;5.60;;
62696;SDS011;48761;42.680;23.312;2023-03-13T00:58:49;8.23;;;5.50;;
62696;SDS011;48761;42.680;23.312;2023-03-13T01:01:16;9.25;;;5.30;;
62696;SDS011;48761;42.680;23.312;2023-03-13T01:04:05;8.07;;;5.85;;
62696;SDS011;48761;42.680;23.312;2023-03-13T01:06:38;7.82;;;5.22;;
62696;SDS011;48761;42.680;23.312;2023-03-13T01:09:05;9.15;;;5.57;;
62696;SDS011;48761;42.680;23.312;2023-03-13T01:11:33;8.65;;;5.15;;
62696;SDS011;48761;42.680;23.312;2023-03-13T01:14:01;9.27;;;5.75;;
62696;SDS011;48761;42.680;23.312;2023-03-13T01:16:31;8.65;;;5.30;;
62696;SDS011;48761;42.680;23.312;2023-03-13T01:18:59;6.90;;;4.78;;
62696;SDS011;48761;42.680;23.312;2023-03-13T01:21:27;8.65;;;5.20;;
62696;SDS011;48761;42.680;23.312;2023-03-13T01:23:53;8.00;;;5.30;;
62696;SDS011;48761;42.680;23.312;2023-03-13T01:26:25;9.10;;;5.57;;
62696;SDS011;48761;42.680;23.312;2023-03-13T01:28:51;8.50;;;4.78;;
62696;SDS011;48761;42.680;23.312;2023-03-13T01:31:22;7.82;;;5.25;;
62696;SDS011;48761;42.680;23.312;2023-03-13T01:33:56;8.85;;;5.43;;
62696;SDS011;48761;42.680;23.312;2023-03-13T01:36:24;10.00;;;4.72;;
62696;SDS011;48761;42.680;23.312;2023-03-13T01:38:55;7.35;;;5.60;;
62696;SDS011;48761;42.680;23.312;2023-03-13T01:41:22;7.03;;;5.15;;
62696;SDS011;48761;42.680;23.312;2023-03-13T01:43:50;8.60;;;5.30;;
62696;SDS011;48761;42.680;23.312;2023-03-13T01:46:19;9.48;;;5.57;;
62696;SDS011;48761;42.680;23.312;2023-03-13T01:48:54;7.75;;;4.90;;
62696;SDS011;48761;42.680;23.312;2023-03-13T01:51:32;7.95;;;5.30;;
62696;SDS011;48761;42.680;23.312;2023-03-13T01:54:07;6.63;;;4.70;;
62696;SDS011;48761;42.680;23.312;2023-03-13T01:56:40;8.57;;;5.57;;
62696;SDS011;48761;42.680;23.312;2023-03-13T01:59:07;6.72;;;5.05;;
62696;SDS011;48761;42.680;23.312;2023-03-13T02:01:38;8.60;;;5.60;;
62696;SDS011;48761;42.680;23.312;2023-03-13T02:04:06;8.40;;;5.10;;
62696;SDS011;48761;42.680;23.312;2023-03-13T02:06:32;10.02;;;5.80;;
62696;SDS011;48761;42.680;23.312;2023-03-13T02:09:05;9.68;;;5.60;;
62696;SDS011;48761;42.680;23.312;2023-03-13T02:11:40;8.93;;;5.45;;
62696;SDS011;48761;42.680;23.312;2023-03-13T02:14:17;11.02;;;5.47;;
62696;SDS011;48761;42.680;23.312;2023-03-13T02:17:16;7.72;;;5.63;;
62696;SDS011;48761;42.680;23.312;2023-03-13T02:19:46;8.40;;;5.40;;
62696;SDS011;48761;42.680;23.312;2023-03-13T02:27:34;8.05;;;5.32;;
62696;SDS011;48761;42.680;23.312;2023-03-13T02:30:00;9.35;;;5.57;;
62696;SDS011;48761;42.680;23.312;2023-03-13T02:32:28;8.07;;;5.57;;
62696;SDS011;48761;42.680;23.312;2023-03-13T02:34:56;7.95;;;5.55;;
62696;SDS011;48761;42.680;23.312;2023-03-13T02:37:27;10.57;;;5.97;;
62696;SDS011;48761;42.680;23.312;2023-03-13T02:39:55;8.90;;;5.35;;
62696;SDS011;48761;42.680;23.312;2023-03-13T02:42:24;8.35;;;5.32;;
62696;SDS011;48761;42.680;23.312;2023-03-13T02:44:52;9.07;;;5.72;;
62696;SDS011;48761;42.680;23.312;2023-03-13T02:47:19;9.18;;;5.95;;
62696;SDS011;48761;42.680;23.312;2023-03-13T02:49:47;8.95;;;6.07;;
62696;SDS011;48761;42.680;23.312;2023-03-13T02:52:17;10.75;;;6.20;;
62696;SDS011;48761;42.680;23.312;2023-03-13T02:54:49;9.85;;;6.75;;
62696;SDS011;48761;42.680;23.312;2023-03-13T02:57:17;10.55;;;6.95;;
62696;SDS011;48761;42.680;23.312;2023-03-13T02:59:43;8.20;;;6.03;;
62696;SDS011;48761;42.680;23.312;2023-03-13T03:02:09;11.25;;;7.50;;
62696;SDS011;48761;42.680;23.312;2023-03-13T03:04:35;11.95;;;7.85;;
62696;SDS011;48761;42.680;23.312;2023-03-13T03:07:01;12.10;;;8.50;;
62696;SDS011;48761;42.680;23.312;2023-03-13T03:09:27;17.52;;;8.32;;
62696;SDS011;48761;42.680;23.312;2023-03-13T03:11:53;14.30;;;9.00;;
62696;SDS011;48761;42.680;23.312;2023-03-13T03:14:19;14.48;;;8.85;;
62696;SDS011;48761;42.680;23.312;2023-03-13T03:16:50;15.32;;;9.30;;
62696;SDS011;48761;42.680;23.312;2023-03-13T03:19:16;12.27;;;8.60;;
62696;SDS011;48761;42.680;23.312;2023-03-13T03:21:42;14.93;;;9.45;;
62696;SDS011;48761;42.680;23.312;2023-03-13T03:24:11;15.77;;;9.80;;
62696;SDS011;48761;42.680;23.312;2023-03-13T03:26:37;14.60;;;8.82;;
62696;SDS011;48761;42.680;23.312;2023-03-13T03:29:03;13.20;;;9.02;;
62696;SDS011;48761;42.680;23.312;2023-03-13T03:31:29;15.93;;;9.57;;
62696;SDS011;48761;42.680;23.312;2023-03-13T03:33:55;13.60;;;8.88;;
62696;SDS011;48761;42.680;23.312;2023-03-13T03:36:22;16.38;;;8.98;;
62696;SDS011;48761;42.680;23.312;2023-03-13T03:38:48;14.70;;;8.68;;
62696;SDS011;48761;42.680;23.312;2023-03-13T03:41:14;14.38;;;8.77;;
62696;SDS011;48761;42.680;23.312;2023-03-13T03:43:40;15.50;;;9.18;;
62696;SDS011;48761;42.680;23.312;2023-03-13T03:46:07;14.43;;;8.85;;
62696;SDS011;48761;42.680;23.312;2023-03-13T03:48:33;15.07;;;9.63;;
62696;SDS011;48761;42.680;23.312;2023-03-13T03:51:00;14.75;;;8.52;;
62696;SDS011;48761;42.680;23.312;2023-03-13T03:53:26;21.20;;;8.48;;
62696;SDS011;48761;42.680;23.312;2023-03-13T03:55:52;14.45;;;8.50;;
62696;SDS011;48761;42.680;23.312;2023-03-13T03:58:18;13.70;;;8.55;;
62696;SDS011;48761;42.680;23.312;2023-03-13T04:00:44;16.80;;;8.07;;
62696;SDS011;48761;42.680;23.312;2023-03-13T04:03:11;11.75;;;7.47;;
62696;SDS011;48761;42.680;23.312;2023-03-13T04:05:37;12.70;;;7.03;;
62696;SDS011;48761;42.680;23.312;2023-03-13T04:08:04;11.25;;;7.55;;
62696;SDS011;48761;42.680;23.312;2023-03-13T04:10:30;10.32;;;6.80;;
62696;SDS011;48761;42.680;23.312;2023-03-13T04:12:56;13.13;;;8.13;;
62696;SDS011;48761;42.680;23.312;2023-03-13T04:15:23;10.07;;;7.13;;
62696;SDS011;48761;42.680;23.312;2023-03-13T04:17:49;11.85;;;7.40;;
62696;SDS011;48761;42.680;23.312;2023-03-13T04:20:15;14.13;;;6.93;;
62696;SDS011;48761;42.680;23.312;2023-03-13T04:22:41;15.35;;;8.73;;
62696;SDS011;48761;42.680;23.312;2023-03-13T04:25:07;15.57;;;8.25;;
62696;SDS011;48761;42.680;23.312;2023-03-13T04:27:33;14.13;;;7.95;;
62696;SDS011;48761;42.680;23.312;2023-03-13T04:30:00;15.35;;;8.50;;
62696;SDS011;48761;42.680;23.312;2023-03-13T04:32:26;15.38;;;8.55;;
62696;SDS011;48761;42.680;23.312;2023-03-13T04:34:55;13.10;;;8.05;;
62696;SDS011;48761;42.680;23.312;2023-03-13T04:37:20;15.00;;;8.13;;
62696;SDS011;48761;42.680;23.312;2023-03-13T04:39:49;14.63;;;8.43;;
62696;SDS011;48761;42.680;23.312;2023-03-13T04:42:18;12.25;;;7.97;;
62696;SDS011;48761;42.680;23.312;2023-03-13T04:44:50;13.95;;;8.50;;
62696;SDS011;48761;42.680;23.312;2023-03-13T04:47:21;13.63;;;8.57;;
62696;SDS011;48761;42.680;23.312;2023-03-13T04:49:47;15.88;;;8.35;;
62696;SDS011;48761;42.680;23.312;2023-03-13T04:52:13;14.40;;;8.90;;
62696;SDS011;48761;42.680;23.312;2023-03-13T04:54:42;14.18;;;8.82;;
62696;SDS011;48761;42.680;23.312;2023-03-13T04:57:10;16.63;;;8.77;;
62696;SDS011;48761;42.680;23.312;2023-03-13T04:59:36;16.52;;;8.80;;
62696;SDS011;48761;42.680;23.312;2023-03-13T05:02:02;16.98;;;9.30;;
62696;SDS011;48761;42.680;23.312;2023-03-13T05:04:28;16.75;;;10.02;;
62696;SDS011;48761;42.680;23.312;2023-03-13T05:06:54;16.17;;;9.73;;
62696;SDS011;48761;42.680;23.312;2023-03-13T05:09:20;15.32;;;8.98;;
62696;SDS011;48761;42.680;23.312;2023-03-13T05:11:46;12.57;;;7.95;;
62696;SDS011;48761;42.680;23.312;2023-03-13T05:14:11;13.23;;;8.63;;
62696;SDS011;48761;42.680;23.312;2023-03-13T05:16:38;15.77;;;8.57;;
62696;SDS011;48761;42.680;23.312;2023-03-13T05:19:04;18.88;;;8.80;;
62696;SDS011;48761;42.680;23.312;2023-03-13T05:21:30;20.42;;;10.15;;
62696;SDS011;48761;42.680;23.312;2023-03-13T05:23:56;17.75;;;10.15;;
62696;SDS011;48761;42.680;23.312;2023-03-13T05:26:45;21.73;;;10.15;;
62696;SDS011;48761;42.680;23.312;2023-03-13T05:29:13;25.90;;;9.38;;
62696;SDS011;48761;42.680;23.312;2023-03-13T05:31:39;26.55;;;12.13;;
62696;SDS011;48761;42.680;23.312;2023-03-13T05:34:05;22.90;;;9.82;;
62696;SDS011;48761;42.680;23.312;2023-03-13T05:36:31;18.98;;;9.88;;
62696;SDS011;48761;42.680;23.312;2023-03-13T05:38:57;21.73;;;10.02;;
62696;SDS011;48761;42.680;23.312;2023-03-13T05:41:23;22.45;;;11.45;;
62696;SDS011;48761;42.680;23.312;2023-03-13T05:43:49;28.48;;;10.38;;
62696;SDS011;48761;42.680;23.312;2023-03-13T05:46:15;18.63;;;9.45;;
62696;SDS011;48761;42.680;23.312;2023-03-13T05:48:41;14.23;;;8.82;;
62696;SDS011;48761;42.680;23.312;2023-03-13T05:51:07;18.08;;;8.80;;
62696;SDS011;48761;42.680;23.312;2023-03-13T05:53:33;17.58;;;9.43;;
62696;SDS011;48761;42.680;23.312;2023-03-13T05:55:59;15.05;;;9.07;;
62696;SDS011;48761;42.680;23.312;2023-03-13T05:58:25;21.08;;;9.82;;
62696;SDS011;48761;42.680;23.312;2023-03-13T06:00:50;14.40;;;8.98;;
62696;SDS011;48761;42.680;23.312;2023-03-13T06:03:16;16.80;;;8.30;;
62696;SDS011;48761;42.680;23.312;2023-03-13T06:05:42;13.52;;;7.95;;
62696;SDS011;48761;42.680;23.312;2023-03-13T06:08:08;12.75;;;8.57;;
62696;SDS011;48761;42.680;23.312;2023-03-13T06:10:34;12.82;;;8.38;;
62696;SDS011;48761;42.680;23.312;2023-03-13T06:13:00;12.38;;;8.18;;
62696;SDS011;48761;42.680;23.312;2023-03-13T06:15:26;14.00;;;8.95;;
62696;SDS011;48761;42.680;23.312;2023-03-13T06:17:52;15.48;;;9.05;;
62696;SDS011;48761;42.680;23.312;2023-03-13T06:20:18;13.13;;;8.63;;
62696;SDS011;48761;42.680;23.312;2023-03-13T06:22:44;17.60;;;9.35;;
62696;SDS011;48761;42.680;23.312;2023-03-13T06:25:10;12.95;;;9.00;;
62696;SDS011;48761;42.680;23.312;2023-03-13T06:27:35;15.35;;;8.55;;
62696;SDS011;48761;42.680;23.312;2023-03-13T06:30:02;15.73;;;9.02;;
62696;SDS011;48761;42.680;23.312;2023-03-13T06:32:28;9.90;;;7.25;;
62696;SDS011;48761;42.680;23.312;2023-03-13T06:34:54;12.20;;;7.95;;
62696;SDS011;48761;42.680;23.312;2023-03-13T06:37:20;14.38;;;8.57;;
62696;SDS011;48761;42.680;23.312;2023-03-13T06:39:46;13.45;;;7.35;;
62696;SDS011;48761;42.680;23.312;2023-03-13T06:42:12;9.88;;;6.60;;
62696;SDS011;48761;42.680;23.312;2023-03-13T06:44:38;10.65;;;7.07;;
62696;SDS011;48761;42.680;23.312;2023-03-13T06:47:04;14.77;;;8.25;;
62696;SDS011;48761;42.680;23.312;2023-03-13T06:49:30;14.73;;;8.30;;
62696;SDS011;48761;42.680;23.312;2023-03-13T06:51:56;11.60;;;7.88;;
62696;SDS011;48761;42.680;23.312;2023-03-13T06:54:22;19.02;;;10.57;;
62696;SDS011;48761;42.680;23.312;2023-03-13T06:56:49;15.25;;;8.40;;
62696;SDS011;48761;42.680;23.312;2023-03-13T06:59:15;14.15;;;8.38;;
62696;SDS011;48761;42.680;23.312;2023-03-13T07:01:41;12.73;;;8.23;;
62696;SDS011;48761;42.680;23.312;2023-03-13T07:04:11;15.38;;;8.85;;
62696;SDS011;48761;42.680;23.312;2023-03-13T07:06:59;13.70;;;9.02;;
62696;SDS011;48761;42.680;23.312;2023-03-13T07:09:33;19.38;;;10.98;;
62696;SDS011;48761;42.680;23.312;2023-03-13T07:12:11;18.00;;;10.00;;
62696;SDS011;48761;42.680;23.312;2023-03-13T07:14:37;16.88;;;9.65;;
62696;SDS011;48761;42.680;23.312;2023-03-13T07:17:03;12.25;;;8.82;;
62696;SDS011;48761;42.680;23.312;2023-03-13T07:19:32;12.07;;;8.98;;
62696;SDS011;48761;42.680;23.312;2023-03-13T07:22:01;11.45;;;8.52;;
62696;SDS011;48761;42.680;23.312;2023-03-13T07:24:27;20.00;;;9.27;;
62696;SDS011;48761;42.680;23.312;2023-03-13T07:26:53;12.73;;;9.25;;
62696;SDS011;48761;42.680;23.312;2023-03-13T07:29:19;15.82;;;9.32;;
62696;SDS011;48761;42.680;23.312;2023-03-13T07:31:48;16.23;;;10.32;;
62696;SDS011;48761;42.680;23.312;2023-03-13T07:34:15;15.27;;;9.48;;
62696;SDS011;48761;42.680;23.312;2023-03-13T07:36:41;17.30;;;10.35;;
62696;SDS011;48761;42.680;23.312;2023-03-13T07:39:14;14.70;;;10.60;;
62696;SDS011;48761;42.680;23.312;2023-03-13T07:41:40;18.10;;;9.95;;
62696;SDS011;48761;42.680;23.312;2023-03-13T07:53:15;15.38;;;9.48;;
62696;SDS011;48761;42.680;23.312;2023-03-13T07:58:43;17.10;;;12.27;;
62696;SDS011;48761;42.680;23.312;2023-03-13T08:01:24;17.35;;;11.85;;
62696;SDS011;48761;42.680;23.312;2023-03-13T08:03:56;17.77;;;11.88;;
62696;SDS011;48761;42.680;23.312;2023-03-13T08:06:34;21.17;;;11.80;;
62696;SDS011;48761;42.680;23.312;2023-03-13T08:09:04;18.60;;;11.60;;
62696;SDS011;48761;42.680;23.312;2023-03-13T08:14:36;20.02;;;12.02;;
62696;SDS011;48761;42.680;23.312;2023-03-13T08:17:31;17.90;;;12.75;;
62696;SDS011;48761;42.680;23.312;2023-03-13T08:21:01;22.80;;;13.02;;
62696;SDS011;48761;42.680;23.312;2023-03-13T08:23:59;19.55;;;11.38;;
62696;SDS011;48761;42.680;23.312;2023-03-13T08:26:34;18.48;;;12.13;;
62696;SDS011;48761;42.680;23.312;2023-03-13T08:32:32;19.33;;;11.85;;
62696;SDS011;48761;42.680;23.312;2023-03-13T08:35:10;20.63;;;12.73;;
62696;SDS011;48761;42.680;23.312;2023-03-13T08:37:49;20.08;;;11.20;;
62696;SDS011;48761;42.680;23.312;2023-03-13T08:40:25;23.48;;;15.02;;
62696;SDS011;48761;42.680;23.312;2023-03-13T08:43:16;16.33;;;11.68;;
62696;SDS011;48761;42.680;23.312;2023-03-13T08:46:02;17.10;;;11.50;;
62696;SDS011;48761;42.680;23.312;2023-03-13T08:49:33;32.38;;;19.35;;
62696;SDS011;48761;42.680;23.312;2023-03-13T08:52:03;23.30;;;12.32;;
62696;SDS011;48761;42.680;23.312;2023-03-13T08:54:34;18.65;;;12.82;;
62696;SDS011;48761;42.680;23.312;2023-03-13T08:57:08;20.15;;;12.45;;
62696;SDS011;48761;42.680;23.312;2023-03-13T08:59:34;19.83;;;13.13;;
62696;SDS011;48761;42.680;23.312;2023-03-13T09:02:00;26.48;;;12.65;;
62696;SDS011;48761;42.680;23.312;2023-03-13T09:07:53;21.80;;;11.60;;
62696;SDS011;48761;42.680;23.312;2023-03-13T09:10:20;17.88;;;12.55;;
62696;SDS011;48761;42.680;23.312;2023-03-13T09:13:01;15.27;;;11.30;;
62696;SDS011;48761;42.680;23.312;2023-03-13T09:16:07;20.15;;;12.93;;
62696;SDS011;48761;42.680;23.312;2023-03-13T09:18:39;18.55;;;11.30;;
62696;SDS011;48761;42.680;23.312;2023-03-13T09:24:36;25.45;;;12.73;;
62696;SDS011;48761;42.680;23.312;2023-03-13T09:27:08;22.58;;;13.98;;
62696;SDS011;48761;42.680;23.312;2023-03-13T09:29:39;21.88;;;13.30;;
62696;SDS011;48761;42.680;23.312;2023-03-13T09:34:52;17.90;;;12.60;;
62696;SDS011;48761;42.680;23.312;2023-03-13T09:37:18;18.63;;;12.85;;
62696;SDS011;48761;42.680;23.312;2023-03-13T09:40:23;22.38;;;13.32;;
62696;SDS011;48761;42.680;23.312;2023-03-13T09:42:58;32.57;;;14.43;;
62696;SDS011;48761;42.680;23.312;2023-03-13T09:45:29;21.50;;;13.68;;
62696;SDS011;48761;42.680;23.312;2023-03-13T09:49:01;22.70;;;13.07;;
62696;SDS011;48761;42.680;23.312;2023-03-13T09:50:59;20.08;;;12.60;;
62696;SDS011;48761;42.680;23.312;2023-03-13T09:56:23;20.80;;;15.00;;
62696;SDS011;48761;42.680;23.312;2023-03-13T09:59:17;20.35;;;12.95;;
62696;SDS011;48761;42.680;23.312;2023-03-13T10:01:51;20.98;;;12.27;;
62696;SDS011;48761;42.680;23.312;2023-03-13T10:04:38;18.88;;;11.88;;
62696;SDS011;48761;42.680;23.312;2023-03-13T10:07:12;21.58;;;12.90;;
62696;SDS011;48761;42.680;23.312;2023-03-13T10:09:41;22.00;;;12.90;;
62696;SDS011;48761;42.680;23.312;2023-03-13T10:15:29;22.35;;;13.57;;
62696;SDS011;48761;42.680;23.312;2023-03-13T10:18:11;25.35;;;13.48;;
62696;SDS011;48761;42.680;23.312;2023-03-13T10:21:22;19.52;;;13.25;;
62696;SDS011;48761;42.680;23.312;2023-03-13T10:24:38;23.02;;;13.07;;
62696;SDS011;48761;42.680;23.312;2023-03-13T10:33:29;24.00;;;14.20;;
62696;SDS011;48761;42.680;23.312;2023-03-13T10:36:11;19.85;;;13.85;;
62696;SDS011;48761;42.680;23.312;2023-03-13T10:39:24;21.27;;;13.77;;
62696;SDS011;48761;42.680;23.312;2023-03-13T10:42:33;18.50;;;13.57;;
62696;SDS011;48761;42.680;23.312;2023-03-13T10:45:03;18.85;;;13.77;;
62696;SDS011;48761;42.680;23.312;2023-03-13T11:00:48;20.40;;;13.57;;
62696;SDS011;48761;42.680;23.312;2023-03-13T11:03:25;22.33;;;13.63;;
62696;SDS011;48761;42.680;23.312;2023-03-13T11:11:23;21.33;;;12.82;;
62696;SDS011;48761;42.680;23.312;2023-03-13T11:13:54;22.13;;;13.98;;
62696;SDS011;48761;42.680;23.312;2023-03-13T11:19:47;17.90;;;13.25;;
62696;SDS011;48761;42.680;23.312;2023-03-13T12:18:50;22.85;;;15.40;;
62696;SDS011;48761;42.680;23.312;2023-03-13T12:21:47;21.00;;;14.68;;
62696;SDS011;48761;42.680;23.312;2023-03-13T12:24:24;23.63;;;14.80;;
62696;SDS011;48761;42.680;23.312;2023-03-13T12:27:17;20.73;;;14.50;;
62696;SDS011;48761;42.680;23.312;2023-03-13T12:33:30;20.15;;;14.05;;
62696;SDS011;48761;42.680;23.312;2023-03-13T12:44:25;24.20;;;15.32;;
62696;SDS011;48761;42.680;23.312;2023-03-13T12:47:09;24.30;;;15.57;;
62696;SDS011;48761;42.680;23.312;2023-03-13T13:00:54;23.83;;;15.73;;
62696;SDS011;48761;42.680;23.312;2023-03-13T13:09:20;27.92;;;15.35;;
62696;SDS011;48761;42.680;23.312;2023-03-13T13:31:44;20.52;;;14.15;;
62696;SDS011;48761;42.680;23.312;2023-03-13T13:53:32;17.95;;;12.82;;
62696;SDS011;48761;42.680;23.312;2023-03-13T14:07:56;21.38;;;12.25;;
62696;SDS011;48761;42.680;23.312;2023-03-13T14:16:59;19.95;;;12.10;;
62696;SDS011;48761;42.680;23.312;2023-03-13T14:27:56;23.48;;;13.05;;
62696;SDS011;48761;42.680;23.312;2023-03-13T14:30:25;21.60;;;13.43;;
62696;SDS011;48761;42.680;23.312;2023-03-13T14:33:04;18.40;;;13.40;;
62696;SDS011;48761;42.680;23.312;2023-03-13T14:46:45;21.75;;;13.80;;
62696;SDS011;48761;42.680;23.312;2023-03-13T14:58:36;17.60;;;12.73;;
62696;SDS011;48761;42.680;23.312;2023-03-13T15:28:09;20.38;;;11.98;;
62696;SDS011;48761;42.680;23.312;2023-03-13T15:30:57;18.13;;;11.32;;
62696;SDS011;48761;42.680;23.312;2023-03-13T15:34:05;18.05;;;12.45;;
62696;SDS011;48761;42.680;23.312;2023-03-13T15:36:51;20.75;;;11.93;;
62696;SDS011;48761;42.680;23.312;2023-03-13T15:39:23;19.80;;;12.35;;
62696;SDS011;48761;42.680;23.312;2023-03-13T15:41:56;25.92;;;13.60;;
62696;SDS011;48761;42.680;23.312;2023-03-13T15:44:23;19.10;;;12.82;;
62696;SDS011;48761;42.680;23.312;2023-03-13T15:47:00;20.83;;;13.05;;
62696;SDS011;48761;42.680;23.312;2023-03-13T15:49:41;25.58;;;13.85;;
62696;SDS011;48761;42.680;23.312;2023-03-13T15:52:14;24.35;;;13.30;;
62696;SDS011;48761;42.680;23.312;2023-03-13T15:55:13;18.88;;;12.38;;
62696;SDS011;48761;42.680;23.312;2023-03-13T16:03:31;24.63;;;15.32;;
62696;SDS011;48761;42.680;23.312;2023-03-13T16:06:46;26.23;;;14.60;;
62696;SDS011;48761;42.680;23.312;2023-03-13T16:13:24;21.23;;;13.90;;
62696;SDS011;48761;42.680;23.312;2023-03-13T16:16:08;25.10;;;15.82;;
62696;SDS011;48761;42.680;23.312;2023-03-13T16:18:50;21.15;;;12.23;;
62696;SDS011;48761;42.680;23.312;2023-03-13T16:24:01;20.50;;;12.35;;
62696;SDS011;48761;42.680;23.312;2023-03-13T16:26:58;21.80;;;12.50;;
62696;SDS011;48761;42.680;23.312;2023-03-13T16:29:30;17.67;;;11.75;;
62696;SDS011;48761;42.680;23.312;2023-03-13T16:35:12;31.02;;;16.95;;
62696;SDS011;48761;42.680;23.312;2023-03-13T16:43:17;36.88;;;21.00;;
62696;SDS011;48761;42.680;23.312;2023-03-13T16:46:00;40.03;;;23.10;;
62696;SDS011;48761;42.680;23.312;2023-03-13T16:49:10;44.17;;;21.83;;
62696;SDS011;48761;42.680;23.312;2023-03-13T16:52:21;38.03;;;22.33;;
62696;SDS011;48761;42.680;23.312;2023-03-13T16:55:10;42.22;;;22.83;;
62696;SDS011;48761;42.680;23.312;2023-03-13T17:00:19;42.50;;;22.65;;
62696;SDS011;48761;42.680;23.312;2023-03-13T17:05:42;31.55;;;18.70;;
62696;SDS011;48761;42.680;23.312;2023-03-13T17:13:56;39.03;;;20.48;;
62696;SDS011;48761;42.680;23.312;2023-03-13T17:16:29;42.00;;;21.25;;
62696;SDS011;48761;42.680;23.312;2023-03-13T17:18:57;30.27;;;16.15;;
62696;SDS011;48761;42.680;23.312;2023-03-13T17:21:29;35.92;;;19.52;;
62696;SDS011;48761;42.680;23.312;2023-03-13T17:24:21;38.90;;;19.40;;
62696;SDS011;48761;42.680;23.312;2023-03-13T17:26:47;35.20;;;19.85;;
62696;SDS011;48761;42.680;23.312;2023-03-13T17:32:18;36.72;;;18.42;;
62696;SDS011;48761;42.680;23.312;2023-03-13T17:34:44;37.45;;;19.50;;
62696;SDS011;48761;42.680;23.312;2023-03-13T17:37:14;35.88;;;17.48;;
62696;SDS011;48761;42.680;23.312;2023-03-13T17:39:47;27.98;;;16.80;;
62696;SDS011;48761;42.680;23.312;2023-03-13T17:42:22;26.98;;;14.95;;
62696;SDS011;48761;42.680;23.312;2023-03-13T18:26:32;33.10;;;18.35;;
62696;SDS011;48761;42.680;23.312;2023-03-13T18:29:39;31.17;;;15.45;;
62696;SDS011;48761;42.680;23.312;2023-03-13T18:45:21;27.13;;;14.82;;
62696;SDS011;48761;42.680;23.312;2023-03-13T19:11:11;29.50;;;13.85;;
62696;SDS011;48761;42.680;23.312;2023-03-13T19:25:21;33.78;;;14.65;;
62696;SDS011;48761;42.680;23.312;2023-03-13T19:45:08;40.83;;;17.88;;
62696;SDS011;48761;42.680;23.312;2023-03-13T19:47:38;39.95;;;17.80;;
62696;SDS011;48761;42.680;23.312;2023-03-13T19:55:31;34.00;;;17.40;;
62696;SDS011;48761;42.680;23.312;2023-03-13T19:57:58;45.28;;;18.42;;
62696;SDS011;48761;42.680;23.312;2023-03-13T20:00:25;40.45;;;19.25;;
62696;SDS011;48761;42.680;23.312;2023-03-13T20:02:57;39.65;;;18.23;;
62696;SDS011;48761;42.680;23.312;2023-03-13T20:05:27;37.78;;;20.27;;
62696;SDS011;48761;42.680;23.312;2023-03-13T20:07:53;39.95;;;19.38;;
62696;SDS011;48761;42.680;23.312;2023-03-13T20:10:20;33.88;;;18.75;;
62696;SDS011;48761;42.680;23.312;2023-03-13T20:12:46;49.83;;;20.30;;
62696;SDS011;48761;42.680;23.312;2023-03-13T20:15:12;44.55;;;19.65;;
62696;SDS011;48761;42.680;23.312;2023-03-13T20:17:41;37.90;;;16.95;;
62696;SDS011;48761;42.680;23.312;2023-03-13T20:20:10;30.80;;;14.52;;
62696;SDS011;48761;42.680;23.312;2023-03-13T20:22:45;34.40;;;17.55;;
62696;SDS011;48761;42.680;23.312;2023-03-13T20:25:20;39.33;;;19.42;;
62696;SDS011;48761;42.680;23.312;2023-03-13T20:27:47;38.88;;;18.30;;
62696;SDS011;48761;42.680;23.312;2023-03-13T20:30:13;43.67;;;19.85;;
62696;SDS011;48761;42.680;23.312;2023-03-13T20:32:39;43.00;;;19.42;;
62696;SDS011;48761;42.680;23.312;2023-03-13T20:35:06;24.15;;;13.68;;
62696;SDS011;48761;42.680;23.312;2023-03-13T20:37:32;23.63;;;12.45;;
62696;SDS011;48761;42.680;23.312;2023-03-13T20:39:59;27.35;;;14.32;;
62696;SDS011;48761;42.680;23.312;2023-03-13T20:42:25;39.03;;;18.85;;
62696;SDS011;48761;42.680;23.312;2023-03-13T20:44:51;40.53;;;20.90;;
62696;SDS011;48761;42.680;23.312;2023-03-13T20:47:17;46.80;;;20.88;;
62696;SDS011;48761;42.680;23.312;2023-03-13T20:49:43;36.80;;;20.58;;
62696;SDS011;48761;42.680;23.312;2023-03-13T20:52:09;42.75;;;21.70;;
62696;SDS011;48761;42.680;23.312;2023-03-13T20:54:35;30.13;;;15.02;;
62696;SDS011;48761;42.680;23.312;2023-03-13T20:57:01;37.25;;;17.83;;
62696;SDS011;48761;42.680;23.312;2023-03-13T20:59:27;38.85;;;18.60;;
62696;SDS011;48761;42.680;23.312;2023-03-13T21:01:53;21.92;;;11.82;;
62696;SDS011;48761;42.680;23.312;2023-03-13T21:04:19;39.50;;;18.77;;
62696;SDS011;48761;42.680;23.312;2023-03-13T21:06:44;26.85;;;12.88;;
62696;SDS011;48761;42.680;23.312;2023-03-13T21:09:10;34.40;;;15.65;;
62696;SDS011;48761;42.680;23.312;2023-03-13T21:11:36;38.20;;;15.57;;
62696;SDS011;48761;42.680;23.312;2023-03-13T21:14:02;21.52;;;10.05;;
62696;SDS011;48761;42.680;23.312;2023-03-13T21:16:28;29.95;;;16.08;;
62696;SDS011;48761;42.680;23.312;2023-03-13T21:18:54;22.25;;;12.25;;
62696;SDS011;48761;42.680;23.312;2023-03-13T21:21:20;20.25;;;11.63;;
62696;SDS011;48761;42.680;23.312;2023-03-13T21:23:46;18.30;;;9.75;;
62696;SDS011;48761;42.680;23.312;2023-03-13T21:26:12;13.18;;;8.10;;
62696;SDS011;48761;42.680;23.312;2023-03-13T21:28:39;30.40;;;13.85;;
62696;SDS011;48761;42.680;23.312;2023-03-13T21:31:09;23.23;;;11.02;;
62696;SDS011;48761;42.680;23.312;2023-03-13T21:33:36;19.20;;;8.75;;
62696;SDS011;48761;42.680;23.312;2023-03-13T21:36:03;14.48;;;6.80;;
62696;SDS011;48761;42.680;23.312;2023-03-13T21:38:29;27.27;;;12.68;;
62696;SDS011;48761;42.680;23.312;2023-03-13T21:40:55;25.38;;;13.52;;
62696;SDS011;48761;42.680;23.312;2023-03-13T21:43:21;22.80;;;12.70;;
62696;SDS011;48761;42.680;23.312;2023-03-13T21:45:47;22.17;;;10.88;;
62696;SDS011;48761;42.680;23.312;2023-03-13T21:48:13;29.65;;;14.57;;
62696;SDS011;48761;42.680;23.312;2023-03-13T21:50:39;14.25;;;8.70;;
62696;SDS011;48761;42.680;23.312;2023-03-13T21:53:05;24.58;;;11.77;;
62696;SDS011;48761;42.680;23.312;2023-03-13T21:55:31;32.72;;;13.95;;
62696;SDS011;48761;42.680;23.312;2023-03-13T21:57:57;11.65;;;6.40;;
62696;SDS011;48761;42.680;23.312;2023-03-13T22:00:23;11.00;;;6.15;;